createdAt,value
2018-07-04T00:01:59.514Z,6.60
2018-07-04T00:04:39.120Z,6.00
2018-07-04T00:07:18.794Z,6.20
2018-07-04T00:09:58.219Z,6.17
2018-07-04T00:12:37.878Z,6.57
2018-07-04T00:15:17.398Z,6.67
2018-07-04T00:17:57.054Z,6.20
2018-07-04T00:20:39.670Z,6.50
2018-07-04T00:23:19.417Z,6.03
2018-07-04T00:25:59.170Z,6.20
2018-07-04T00:28:38.703Z,5.87
2018-07-04T00:31:18.448Z,6.80
2018-07-04T00:33:58.021Z,6.27
2018-07-04T00:36:37.626Z,6.60
2018-07-04T00:39:17.239Z,6.37
2018-07-04T00:41:56.941Z,8.00
2018-07-04T00:44:36.426Z,6.50
2018-07-04T00:47:16.082Z,6.97
2018-07-04T00:49:55.606Z,6.80
2018-07-04T00:52:35.681Z,6.53
2018-07-04T00:55:15.299Z,6.50
2018-07-04T00:57:55.072Z,6.70
2018-07-04T01:00:34.710Z,6.50
2018-07-04T01:03:14.434Z,6.90
2018-07-04T01:05:54.017Z,6.53
2018-07-04T01:08:33.750Z,6.60
2018-07-04T01:11:13.329Z,6.70
2018-07-04T01:13:52.986Z,7.07
2018-07-04T01:16:32.461Z,6.50
2018-07-04T01:19:12.137Z,6.80
2018-07-04T01:21:51.670Z,6.50
2018-07-04T01:24:31.202Z,6.13
2018-07-04T01:27:10.905Z,6.80
2018-07-04T01:29:50.474Z,7.00
2018-07-04T01:32:30.239Z,6.73
2018-07-04T01:35:09.829Z,6.90
2018-07-04T01:37:49.417Z,6.70
2018-07-04T01:40:28.918Z,7.63
2018-07-04T01:43:08.590Z,6.57
2018-07-04T01:45:48.138Z,7.03
2018-07-04T01:48:27.881Z,7.13
2018-07-04T01:51:07.581Z,6.80
2018-07-04T01:53:47.265Z,7.27
2018-07-04T01:56:26.902Z,6.90
2018-07-04T01:59:06.534Z,6.70
2018-07-04T02:01:46.161Z,7.30
2018-07-04T02:04:25.897Z,6.20
2018-07-04T02:07:05.474Z,6.30
2018-07-04T02:09:45.085Z,6.80
2018-07-04T02:12:24.657Z,6.97
2018-07-04T02:15:04.214Z,6.87
2018-07-04T02:17:43.742Z,6.60
2018-07-04T02:20:23.374Z,6.87
2018-07-04T02:23:03.006Z,7.47
2018-07-04T02:25:42.606Z,6.40
2018-07-04T02:28:22.138Z,6.43
2018-07-04T02:31:01.798Z,6.57
2018-07-04T02:33:35.272Z,6.63
2018-07-04T02:36:15.004Z,6.50
2018-07-04T02:38:54.377Z,7.00
2018-07-04T02:41:34.190Z,6.37
2018-07-04T02:44:13.814Z,6.40
2018-07-04T02:46:53.583Z,6.93
2018-07-04T02:49:33.208Z,6.90
2018-07-04T02:52:12.890Z,7.43
2018-07-04T02:54:52.527Z,6.60
2018-07-04T02:57:32.130Z,6.23
2018-07-04T03:00:11.773Z,6.70
2018-07-04T03:02:51.353Z,6.87
2018-07-04T03:05:31.058Z,6.60
2018-07-04T03:08:10.697Z,7.50
2018-07-04T03:10:50.354Z,6.83
2018-07-04T03:13:29.899Z,7.00
2018-07-04T03:16:09.610Z,6.63
2018-07-04T03:18:49.190Z,6.73
2018-07-04T03:21:28.689Z,6.40
2018-07-04T03:24:08.485Z,6.93
2018-07-04T03:26:47.945Z,7.00
2018-07-04T03:29:27.624Z,7.33
2018-07-04T03:32:07.270Z,6.87
2018-07-04T03:34:46.962Z,7.23
2018-07-04T03:37:26.654Z,6.80
2018-07-04T03:40:06.110Z,6.97
2018-07-04T03:42:45.965Z,6.90
2018-07-04T03:45:25.434Z,6.97
2018-07-04T03:48:05.214Z,6.50
2018-07-04T03:50:44.853Z,6.73
2018-07-04T03:53:24.274Z,7.37
2018-07-04T03:56:04.086Z,6.33
2018-07-04T03:58:43.946Z,7.00
2018-07-04T04:01:23.518Z,6.63
2018-07-04T04:03:57.054Z,6.80
2018-07-04T04:06:36.749Z,7.03
2018-07-04T04:09:16.356Z,6.17
2018-07-04T04:11:55.861Z,6.90
2018-07-04T04:14:35.693Z,6.60
2018-07-04T04:17:09.152Z,7.20
2018-07-04T04:19:49.237Z,6.53
2018-07-04T04:22:28.913Z,6.30
2018-07-04T04:25:08.626Z,6.77
2018-07-04T04:27:48.123Z,7.20
2018-07-04T04:30:27.634Z,6.57
2018-07-04T04:33:07.406Z,6.70
2018-07-04T04:35:47.021Z,7.53
2018-07-04T04:38:26.541Z,6.80
2018-07-04T04:41:06.225Z,7.10
2018-07-04T04:43:45.849Z,6.10
2018-07-04T04:46:25.529Z,6.90
2018-07-04T04:49:05.158Z,6.20
2018-07-04T04:51:44.869Z,6.20
2018-07-04T04:54:24.302Z,6.43
2018-07-04T04:57:03.981Z,6.73
2018-07-04T04:59:43.649Z,7.10
2018-07-04T05:02:23.162Z,6.60
2018-07-04T05:10:59.375Z,6.20
2018-07-04T05:13:38.935Z,6.93
2018-07-04T05:16:18.389Z,6.03
2018-07-04T05:18:58.171Z,6.07
2018-07-04T05:21:37.851Z,6.17
2018-07-04T05:24:17.293Z,6.70
2018-07-04T05:26:56.889Z,6.60
2018-07-04T05:29:36.379Z,5.80
2018-07-04T05:32:15.825Z,6.57
2018-07-04T05:34:55.285Z,6.50
2018-07-04T05:37:34.883Z,6.43
2018-07-04T05:40:14.484Z,6.70
2018-07-04T05:42:54.570Z,6.23
2018-07-04T05:45:34.251Z,5.90
2018-07-04T05:48:13.734Z,6.47
2018-07-04T05:50:53.278Z,6.13
2018-07-04T05:53:32.765Z,7.10
2018-07-04T05:56:12.377Z,6.33
2018-07-04T05:58:51.854Z,7.43
2018-07-04T06:01:31.398Z,6.80
2018-07-04T06:04:11.066Z,6.13
2018-07-04T06:06:50.561Z,6.80
2018-07-04T06:09:30.243Z,6.23
2018-07-04T06:12:09.649Z,6.40
2018-07-04T06:14:50.403Z,6.67
2018-07-04T06:17:29.907Z,6.07
2018-07-04T06:20:09.875Z,6.67
2018-07-04T06:22:49.590Z,6.47
2018-07-04T06:25:29.719Z,6.27
2018-07-04T06:28:09.370Z,5.73
2018-07-04T06:30:48.916Z,6.77
2018-07-04T06:33:28.504Z,6.23
2018-07-04T06:36:08.181Z,5.93
2018-07-04T06:38:35.369Z,6.23
2018-07-04T06:41:02.536Z,5.90
2018-07-04T06:43:29.683Z,5.73
2018-07-04T06:45:56.841Z,5.20
2018-07-04T06:48:23.989Z,6.00
2018-07-04T06:50:51.153Z,6.03
2018-07-04T06:53:18.306Z,5.53
2018-07-04T06:55:45.470Z,5.23
2018-07-04T06:58:12.620Z,5.53
2018-07-04T07:00:39.857Z,5.93
2018-07-04T07:03:19.365Z,5.87
2018-07-04T07:05:59.079Z,5.70
2018-07-04T07:08:38.728Z,5.40
2018-07-04T07:11:18.319Z,5.80
2018-07-04T07:13:57.825Z,5.80
2018-07-04T07:16:37.286Z,5.43
2018-07-04T07:19:16.839Z,5.43
2018-07-04T07:21:56.288Z,5.37
2018-07-04T07:24:35.855Z,5.07
2018-07-04T07:27:15.366Z,5.40
2018-07-04T07:29:55.079Z,5.60
2018-07-04T07:32:34.486Z,6.70
2018-07-04T07:35:13.995Z,5.83
2018-07-04T07:37:53.915Z,5.93
2018-07-04T07:40:33.490Z,5.07
2018-07-04T07:43:13.086Z,5.33
2018-07-04T07:45:52.556Z,4.90
2018-07-04T07:48:32.242Z,4.70
2018-07-04T07:51:11.754Z,4.40
2018-07-04T07:53:51.386Z,4.87
2018-07-04T07:56:31.083Z,6.93
2018-07-04T07:59:04.433Z,4.90
2018-07-04T08:01:44.132Z,4.70
2018-07-04T08:04:23.741Z,5.07
2018-07-04T08:07:03.343Z,4.63
2018-07-04T08:09:42.970Z,4.50
2018-07-04T08:12:22.566Z,4.40
2018-07-04T08:15:02.027Z,4.33
2018-07-04T08:17:41.498Z,5.23
2018-07-04T08:20:21.066Z,5.50
2018-07-04T08:23:00.544Z,5.10
2018-07-04T08:25:40.078Z,4.97
2018-07-04T08:28:19.546Z,5.40
2018-07-04T08:30:59.129Z,4.63
2018-07-04T08:33:38.678Z,5.03
2018-07-04T08:36:18.313Z,4.40
2018-07-04T08:38:57.806Z,5.17
2018-07-04T08:41:37.247Z,4.83
2018-07-04T08:44:16.745Z,5.13
2018-07-04T08:46:56.230Z,4.10
2018-07-04T08:49:35.698Z,5.07
2018-07-04T08:52:15.310Z,5.40
2018-07-04T08:54:54.737Z,5.13
2018-07-04T08:57:34.322Z,4.90
2018-07-04T09:00:13.954Z,4.60
2018-07-04T09:02:53.626Z,4.60
2018-07-04T09:05:33.274Z,5.07
2018-07-04T09:08:12.654Z,4.53
2018-07-04T09:10:52.254Z,4.30
2018-07-04T09:13:31.954Z,4.67
2018-07-04T09:16:11.598Z,4.57
2018-07-04T09:18:51.141Z,4.57
2018-07-04T09:21:30.706Z,4.70
2018-07-04T09:24:10.430Z,4.73
2018-07-04T09:26:49.906Z,4.50
2018-07-04T09:29:29.560Z,4.97
2018-07-04T09:32:08.994Z,5.00
2018-07-04T09:34:48.714Z,4.87
2018-07-04T09:37:28.149Z,4.77
2018-07-04T09:40:07.723Z,5.00
2018-07-04T09:42:41.330Z,5.50
2018-07-04T09:45:20.845Z,4.80
2018-07-04T09:48:00.314Z,5.50
2018-07-04T09:50:39.818Z,4.80
2018-07-04T09:53:19.286Z,6.67
2018-07-04T09:55:58.803Z,7.13
2018-07-04T09:58:38.296Z,7.10
2018-07-04T10:01:23.827Z,7.07
2018-07-04T10:04:03.665Z,6.60
2018-07-04T10:06:43.914Z,6.60
2018-07-04T10:09:23.872Z,6.60
2018-07-04T10:12:03.390Z,6.07
2018-07-04T10:14:43.146Z,5.70
2018-07-04T10:17:22.661Z,5.57
2018-07-04T10:20:02.216Z,5.90
2018-07-04T10:22:41.733Z,5.80
2018-07-04T10:25:21.264Z,5.87
2018-07-04T10:28:00.593Z,5.93
2018-07-04T10:30:40.194Z,10.33
2018-07-04T10:33:19.686Z,6.90
2018-07-04T10:35:59.366Z,7.73
2018-07-04T10:38:38.745Z,6.83
2018-07-04T10:41:18.382Z,5.30
2018-07-04T10:43:57.961Z,5.13
2018-07-04T10:46:37.730Z,6.30
2018-07-04T10:49:17.397Z,7.90
2018-07-04T10:51:56.980Z,7.80
2018-07-04T10:54:36.425Z,7.07
2018-07-04T10:57:16.109Z,7.50
2018-07-04T10:59:55.522Z,9.07
2018-07-04T11:02:35.258Z,10.10
2018-07-04T11:05:14.842Z,8.70
2018-07-04T11:07:54.417Z,9.43
2018-07-04T11:10:33.824Z,10.57
2018-07-04T11:13:13.327Z,10.93
2018-07-04T11:15:52.753Z,11.50
2018-07-04T11:18:32.309Z,11.90
2018-07-04T11:21:11.830Z,10.90
2018-07-04T11:23:51.585Z,11.17
2018-07-04T11:26:31.140Z,12.23
2018-07-04T11:29:10.604Z,12.40
2018-07-04T11:31:50.175Z,12.93
2018-07-04T11:34:29.773Z,11.20
2018-07-04T11:37:09.462Z,10.70
2018-07-04T11:39:48.945Z,10.97
2018-07-04T11:42:28.589Z,10.00
2018-07-04T11:45:08.166Z,10.03
2018-07-04T11:47:35.427Z,10.23
2018-07-04T11:50:02.599Z,9.90
2018-07-04T11:52:29.761Z,10.80
2018-07-04T11:54:56.909Z,9.97
2018-07-04T11:57:24.074Z,10.70
2018-07-04T11:59:51.245Z,12.00
2018-07-04T12:02:18.402Z,12.73
2018-07-04T12:04:57.962Z,11.23
2018-07-04T12:07:25.349Z,11.40
2018-07-04T12:09:52.505Z,11.23
2018-07-04T12:12:19.669Z,9.80
2018-07-04T12:14:46.834Z,9.63
2018-07-04T12:17:14.004Z,10.23
2018-07-04T12:19:41.153Z,10.97
2018-07-04T12:22:08.317Z,9.63
2018-07-04T12:24:35.745Z,9.53
2018-07-04T12:27:03.286Z,9.60
2018-07-04T12:29:30.410Z,9.77
2018-07-04T12:31:57.622Z,10.13
2018-07-04T12:34:24.730Z,9.73
2018-07-04T12:36:51.891Z,9.00
2018-07-04T12:39:19.874Z,8.67
2018-07-04T12:41:47.029Z,7.97
2018-07-04T12:44:14.182Z,7.70
2018-07-04T12:46:41.338Z,8.43
2018-07-04T12:49:08.481Z,8.13
2018-07-04T12:51:35.817Z,7.60
2018-07-04T12:54:08.427Z,7.27
2018-07-04T12:56:47.986Z,7.30
2018-07-04T12:59:27.502Z,7.13
2018-07-04T13:02:07.099Z,6.97
2018-07-04T13:04:46.557Z,6.50
2018-07-04T13:07:26.586Z,6.43
2018-07-04T13:10:06.026Z,7.00
2018-07-04T13:12:45.619Z,7.00
2018-07-04T13:15:25.077Z,7.10
2018-07-04T13:18:04.611Z,5.90
2018-07-04T13:20:44.066Z,5.83
2018-07-04T13:23:23.765Z,6.30
2018-07-04T13:25:57.358Z,6.40
2018-07-04T13:28:37.096Z,6.90
2018-07-04T13:31:16.601Z,6.77
2018-07-04T13:33:56.157Z,4.90
2018-07-04T13:36:35.585Z,5.33
2018-07-04T13:39:15.190Z,4.77
2018-07-04T13:41:54.712Z,5.47
2018-07-04T13:44:34.460Z,5.63
2018-07-04T13:47:14.117Z,6.00
2018-07-04T13:49:53.794Z,6.10
2018-07-04T13:52:33.329Z,5.33
2018-07-04T13:55:12.986Z,6.70
2018-07-04T13:57:52.608Z,6.40
2018-07-04T14:00:32.242Z,6.00
2018-07-04T14:03:11.613Z,5.60
2018-07-04T14:05:51.295Z,5.60
2018-07-04T14:08:30.777Z,4.77
2018-07-04T14:11:10.581Z,4.90
2018-07-04T14:13:50.193Z,4.77
2018-07-04T14:16:29.921Z,5.70
2018-07-04T14:19:09.394Z,5.10
2018-07-04T14:21:49.027Z,8.00
2018-07-04T14:24:28.531Z,7.67
2018-07-04T14:27:08.090Z,7.83
2018-07-04T14:29:47.702Z,8.13
2018-07-04T14:32:27.126Z,8.40
2018-07-04T14:35:06.706Z,8.10
2018-07-04T14:37:46.361Z,8.77
2018-07-04T14:40:25.891Z,7.60
2018-07-04T14:43:05.508Z,8.63
2018-07-04T14:45:45.069Z,10.57
2018-07-04T14:48:24.589Z,9.73
2018-07-04T14:51:04.194Z,8.90
2018-07-04T14:53:43.637Z,9.77
2018-07-04T14:56:23.318Z,8.20
2018-07-04T14:59:03.001Z,9.30
2018-07-04T15:01:42.501Z,34.20
2018-07-04T15:04:22.253Z,17.30
2018-07-04T15:07:01.807Z,12.80
2018-07-04T15:09:41.651Z,12.40
2018-07-04T15:12:21.270Z,11.43
2018-07-04T15:15:00.827Z,8.67
2018-07-04T15:17:40.390Z,6.30
2018-07-04T15:20:19.876Z,6.80
2018-07-04T15:22:59.553Z,5.77
2018-07-04T15:25:39.054Z,6.03
2018-07-04T15:28:18.578Z,6.57
2018-07-04T15:30:58.254Z,5.17
2018-07-04T15:33:37.813Z,3.73
2018-07-04T15:36:17.469Z,2.47
2018-07-04T15:38:56.929Z,2.93
2018-07-04T15:41:36.605Z,3.53
2018-07-04T15:44:16.109Z,3.70
2018-07-04T15:46:55.725Z,3.67
2018-07-04T15:49:35.345Z,3.40
2018-07-04T15:52:14.857Z,3.80
2018-07-04T15:54:56.256Z,3.27
2018-07-04T15:57:35.828Z,3.30
2018-07-04T16:00:15.466Z,3.70
2018-07-04T16:02:54.998Z,4.37
2018-07-04T16:05:34.594Z,5.20
2018-07-04T16:08:14.258Z,5.17
2018-07-04T16:10:53.946Z,4.60
2018-07-04T16:13:33.572Z,5.90
2018-07-04T16:16:13.021Z,5.50
2018-07-04T16:18:52.602Z,5.10
2018-07-04T16:21:32.221Z,4.70
2018-07-04T16:24:11.768Z,3.70
2018-07-04T16:26:51.398Z,3.23
2018-07-04T16:29:30.945Z,3.67
2018-07-04T16:32:10.486Z,4.10
2018-07-04T16:34:50.222Z,3.40
2018-07-04T16:37:29.642Z,4.00
2018-07-04T16:40:09.328Z,3.93
2018-07-04T16:42:48.885Z,4.37
2018-07-04T16:45:28.618Z,5.20
2018-07-04T16:48:08.111Z,5.30
2018-07-04T16:50:47.774Z,4.73
2018-07-04T16:53:27.226Z,3.63
2018-07-04T16:56:06.859Z,3.37
2018-07-04T16:58:46.509Z,3.50
2018-07-04T17:01:26.063Z,3.33
2018-07-04T17:04:05.603Z,3.27
2018-07-04T17:06:45.306Z,3.37
2018-07-04T17:09:24.806Z,3.43
2018-07-04T17:12:04.516Z,3.80
2018-07-04T17:14:44.115Z,3.63
2018-07-04T17:17:23.626Z,3.70
2018-07-04T17:20:03.294Z,3.23
2018-07-04T17:22:42.846Z,3.50
2018-07-04T17:25:22.474Z,4.10
2018-07-04T17:28:01.957Z,4.13
2018-07-04T17:30:41.635Z,4.63
2018-07-04T17:33:21.153Z,5.33
2018-07-04T17:36:00.626Z,4.60
2018-07-04T17:38:40.265Z,4.13
2018-07-04T17:41:19.746Z,4.67
2018-07-04T17:43:59.393Z,4.33
2018-07-04T17:46:38.942Z,5.00
2018-07-04T17:49:18.592Z,4.43
2018-07-04T17:51:58.191Z,4.23
2018-07-04T17:54:37.846Z,4.37
2018-07-04T17:57:17.477Z,4.17
2018-07-04T17:59:56.978Z,4.00
2018-07-04T18:02:38.282Z,3.80
2018-07-04T18:05:17.978Z,4.40
2018-07-04T18:07:57.466Z,4.77
2018-07-04T18:10:37.258Z,4.20
2018-07-04T18:13:16.796Z,4.33
2018-07-04T18:15:56.403Z,4.13
2018-07-04T18:18:35.806Z,5.00
2018-07-04T18:21:20.834Z,5.40
2018-07-04T18:24:00.350Z,4.70
2018-07-04T18:26:39.911Z,4.57
2018-07-04T18:29:19.493Z,5.10
2018-07-04T18:31:59.082Z,5.30
2018-07-04T18:34:38.666Z,5.57
2018-07-04T18:37:18.153Z,4.50
2018-07-04T18:39:57.700Z,5.07
2018-07-04T18:42:37.327Z,5.30
2018-07-04T18:45:17.041Z,5.90
2018-07-04T18:47:56.663Z,6.70
2018-07-04T18:50:36.230Z,6.17
2018-07-04T18:53:16.188Z,6.87
2018-07-04T18:55:56.226Z,7.17
2018-07-04T18:58:35.962Z,7.30
2018-07-04T19:01:16.226Z,7.90
2018-07-04T19:03:56.096Z,7.00
2018-07-04T19:06:35.718Z,7.30
2018-07-04T19:09:15.489Z,8.03
2018-07-04T19:11:54.950Z,7.27
2018-07-04T19:14:34.597Z,7.27
2018-07-04T19:17:14.288Z,6.87
2018-07-04T19:19:53.796Z,6.37
2018-07-04T19:22:33.406Z,6.57
2018-07-04T19:25:12.894Z,7.70
2018-07-04T19:27:52.546Z,7.67
2018-07-04T19:30:32.209Z,7.20
2018-07-04T19:33:12.304Z,8.20
2018-07-04T19:35:51.995Z,7.70
2018-07-04T19:38:31.546Z,8.40
2018-07-04T19:41:11.074Z,7.50
2018-07-04T19:43:50.662Z,6.70
2018-07-04T19:46:30.818Z,5.80
2018-07-04T19:49:10.233Z,6.53
2018-07-04T19:51:49.845Z,6.40
2018-07-04T19:54:29.408Z,6.60
2018-07-04T19:57:09.054Z,7.00
2018-07-04T19:59:49.206Z,8.13
2018-07-04T20:02:28.917Z,8.27
2018-07-04T20:05:08.445Z,8.60
2018-07-04T20:07:48.269Z,8.23
2018-07-04T20:10:27.818Z,7.53
2018-07-04T20:13:07.305Z,7.73
2018-07-04T20:15:47.034Z,7.73
2018-07-04T20:18:26.757Z,9.30
2018-07-04T20:21:06.299Z,7.90
2018-07-04T20:23:46.201Z,6.27
2018-07-04T20:26:25.788Z,6.53
2018-07-04T20:29:05.509Z,6.10
2018-07-04T20:31:45.193Z,7.03
2018-07-04T20:34:24.841Z,6.60
2018-07-04T20:37:04.364Z,6.17
2018-07-04T20:39:45.948Z,5.87
2018-07-04T20:42:26.685Z,5.27
2018-07-04T20:45:07.204Z,6.83
2018-07-04T20:47:47.505Z,7.63
2018-07-04T20:50:27.081Z,7.67
2018-07-04T20:53:06.933Z,8.30
2018-07-04T20:55:49.295Z,8.03
2018-07-04T20:58:28.964Z,8.17
2018-07-04T21:01:08.467Z,7.83
2018-07-04T21:06:43.914Z,7.43
2018-07-04T21:09:23.453Z,7.50
2018-07-04T21:12:04.351Z,8.87
2018-07-04T21:14:43.790Z,8.50
2018-07-04T21:17:23.420Z,8.40
2018-07-04T21:20:02.979Z,10.87
2018-07-04T21:22:42.713Z,11.23
2018-07-04T21:25:22.858Z,11.60
2018-07-04T21:28:02.302Z,10.30
2018-07-04T21:30:41.925Z,9.47
2018-07-04T21:33:21.602Z,9.20
2018-07-04T21:35:54.966Z,9.10
2018-07-04T21:38:35.261Z,10.13
2018-07-04T21:41:08.664Z,8.43
2018-07-04T21:43:48.372Z,9.70
2018-07-04T21:46:27.817Z,7.90
2018-07-04T21:49:07.441Z,9.53
2018-07-04T21:51:46.839Z,8.97
2018-07-04T21:54:26.485Z,8.63
2018-07-04T21:57:05.918Z,9.00
2018-07-04T21:59:45.571Z,8.50
2018-07-04T22:02:25.074Z,8.57
2018-07-04T22:05:04.502Z,8.10
2018-07-04T22:07:44.114Z,8.80
2018-07-04T22:10:23.655Z,8.27
2018-07-04T22:13:03.181Z,8.17
2018-07-04T22:15:42.900Z,9.67
2018-07-04T22:18:22.435Z,9.67
2018-07-04T22:21:01.909Z,9.33
2018-07-04T22:23:41.586Z,8.97
2018-07-04T22:26:21.974Z,9.37
2018-07-04T22:29:01.579Z,8.40
2018-07-04T22:31:41.149Z,9.80
2018-07-04T22:34:20.686Z,8.43
2018-07-04T22:37:00.177Z,8.40
2018-07-04T22:39:40.094Z,8.83
2018-07-04T22:42:19.785Z,10.00
2018-07-04T22:44:59.428Z,9.20
2018-07-04T22:47:39.021Z,9.10
2018-07-04T22:50:18.704Z,8.60
2018-07-04T22:52:58.409Z,8.57
2018-07-04T22:55:37.845Z,8.47
2018-07-04T22:58:17.463Z,8.37
2018-07-04T23:00:56.893Z,8.67
2018-07-04T23:03:36.530Z,8.33
2018-07-04T23:06:16.273Z,8.50
2018-07-04T23:08:55.791Z,8.87
2018-07-04T23:11:35.464Z,8.07
2018-07-04T23:14:14.949Z,7.97
2018-07-04T23:16:54.625Z,7.63
2018-07-04T23:19:34.297Z,9.17
2018-07-04T23:22:13.905Z,8.63
2018-07-04T23:24:53.437Z,8.63
2018-07-04T23:27:33.037Z,8.47
2018-07-04T23:30:06.569Z,8.77
2018-07-04T23:32:46.050Z,8.80
2018-07-04T23:35:25.592Z,9.30
2018-07-04T23:38:05.105Z,8.90
2018-07-04T23:40:44.761Z,9.83
2018-07-04T23:43:24.254Z,8.70
2018-07-04T23:46:03.823Z,10.00
2018-07-04T23:48:43.355Z,9.30
2018-07-04T23:51:22.953Z,9.50
2018-07-04T23:54:02.562Z,10.13
2018-07-04T23:56:42.257Z,9.47
2018-07-04T23:59:21.781Z,9.83
